Time;durP1;ratioP1;P1;durP2;ratioP2;P2;SDS_P1;SDS_P2;PMS_P1;PMS_P2;Temp;Humidity;BMP_temperature;BMP_pressure;BME280_temperature;BME280_humidity;BME280_pressure;Samples;Min_cycle;Max_cycle;Signal;HPM_P1;HPM_P2
2022/05/10 00:00:54;;;;;;;5.38;2.58;;;;;;;14.19;44.29;100092.34;5014437;28;20025;-90
2022/05/10 00:03:21;;;;;;;4.20;2.83;;;;;;;14.23;44.24;100111.38;5032192;28;20059;-90
2022/05/10 00:05:47;;;;;;;3.55;2.42;;;;;;;13.98;44.59;100092.28;5032111;28;20509;-90
2022/05/10 00:08:15;;;;;;;3.35;2.50;;;;;;;13.38;44.76;100008.47;5032464;28;20391;-89
2022/05/10 00:10:42;;;;;;;5.20;2.22;;;;;;;14.25;44.67;100110.19;5031839;28;20216;-89
2022/05/10 00:13:08;;;;;;;2.97;2.20;;;;;;;13.34;45.03;99999.22;5014196;28;20025;-90
2022/05/10 00:15:34;;;;;;;4.13;2.53;;;;;;;14.17;44.95;100117.44;5014107;28;20036;-90
2022/05/10 00:17:59;;;;;;;3.95;1.85;;;;;;;13.89;44.99;100083.59;5014107;28;20505;-90
2022/05/10 00:20:26;;;;;;;2.38;2.17;;;;;;;14.10;45.02;100124.47;5031589;28;20029;-90
2022/05/10 00:22:52;;;;;;;3.90;2.22;;;;;;;13.07;45.19;99966.19;5033878;28;20596;-90
2022/05/10 00:25:22;;;;;;;3.72;2.20;;;;;;;13.98;45.03;100127.63;5032491;28;20167;-90
2022/05/10 00:27:47;;;;;;;5.80;2.22;;;;;;;13.23;45.39;100012.94;5032524;28;20029;-90
2022/05/10 00:30:13;;;;;;;7.13;2.80;;;;;;;13.75;45.25;100100.38;5032685;28;20409;-90
2022/05/10 00:32:40;;;;;;;5.03;2.42;;;;;;;13.73;45.77;100118.31;5014580;28;20033;-90
2022/05/10 00:35:16;;;;;;;4.05;2.70;;;;;;;12.80;45.75;99980.09;5035924;28;20029;-91
2022/05/10 00:37:44;;;;;;;5.47;2.60;;;;;;;13.09;45.83;100049.03;5018446;28;20026;-91
2022/05/10 00:40:11;;;;;;;5.07;2.47;;;;;;;13.22;46.30;100073.09;5035404;28;20430;-90
2022/05/10 00:42:49;;;;;;;5.53;2.95;;;;;;;12.90;46.11;100020.41;5018060;28;20044;-91
2022/05/10 00:45:19;;;;;;;2.45;2.25;;;;;;;12.71;46.67;99990.78;5017837;28;20018;-90
2022/05/10 00:47:58;;;;;;;5.30;2.33;;;;;;;13.32;46.29;100099.34;5035599;28;20039;-90
2022/05/10 00:50:31;;;;;;;5.65;2.42;;;;;;;12.90;46.34;100031.81;5017666;28;20049;-90
2022/05/10 00:53:02;;;;;;;3.15;2.22;;;;;;;12.66;46.50;100006.38;5017729;28;20025;-90
2022/05/10 00:55:36;;;;;;;;;;;;;;;13.14;47.19;100099.69;5035368;28;20108;-90
2022/05/10 00:58:16;;;;;;;5.78;2.47;;;;;;;12.88;46.67;100051.56;5034882;28;19916;-90
2022/05/10 01:00:42;;;;;;;2.67;2.17;;;;;;;12.61;46.59;100005.25;5034869;28;20030;-91
2022/05/10 01:03:24;;;;;;;4.55;2.60;;;;;;;12.88;47.07;100023.22;5034910;28;20048;-90
2022/05/10 01:06:10;;;;;;;3.53;2.63;;;;;;;13.25;46.86;100098.44;5017381;28;20034;-90
2022/05/10 01:08:44;;;;;;;5.72;2.67;;;;;;;12.25;46.91;99930.94;5017377;28;20040;-90
2022/05/10 01:11:13;;;;;;;3.30;2.45;;;;;;;13.19;47.49;100091.22;5017407;28;20034;-90
2022/05/10 01:13:48;;;;;;;4.82;2.70;;;;;;;11.97;47.47;99912.16;5035030;28;20025;-90
2022/05/10 01:16:19;;;;;;;3.63;2.45;;;;;;;12.56;47.12;100015.56;5017377;28;20414;-91
2022/05/10 01:18:47;;;;;;;5.88;2.60;;;;;;;12.98;46.62;100068.03;5034854;28;20026;-90
2022/05/10 01:21:31;;;;;;;7.80;2.92;;;;;;;13.16;47.59;100097.66;5016956;28;20570;-90
2022/05/10 01:24:09;;;;;;;5.13;3.00;;;;;;;13.22;46.83;100096.16;5017132;28;20472;-90
2022/05/10 01:26:56;;;;;;;5.30;3.58;;;;;;;13.20;46.78;100095.50;5016944;28;20462;-91
2022/05/10 01:29:36;;;;;;;4.32;2.40;;;;;;;13.08;47.52;100084.50;5016961;28;20413;-90
2022/05/10 01:34:56;;;;;;;7.00;2.85;;;;;;;12.45;47.58;99992.97;5034811;28;20094;-91
2022/05/10 01:37:25;;;;;;;4.65;2.80;;;;;;;12.35;46.96;99982.63;5016605;28;20025;-91
2022/05/10 01:40:16;;;;;;;4.22;3.00;;;;;;;13.12;47.02;100083.13;5034539;28;20116;-90
2022/05/10 01:42:51;;;;;;;3.72;2.40;;;;;;;12.54;48.00;100031.63;5034930;28;20546;-91
2022/05/10 01:45:22;;;;;;;6.97;3.67;;;;;;;13.00;47.65;100082.75;5016557;28;20032;-90
2022/05/10 01:47:50;;;;;;;6.45;3.10;;;;;;;12.92;47.74;100082.00;5035141;28;20052;-90
2022/05/10 01:50:23;;;;;;;5.53;2.95;;;;;;;11.69;48.31;99904.69;5034895;28;20082;-91
2022/05/10 01:53:14;;;;;;;4.75;3.33;;;;;;;12.74;48.97;100077.03;5017347;28;20113;-90
2022/05/10 01:55:47;;;;;;;4.85;2.92;;;;;;;12.48;48.16;100035.00;5034775;28;20389;-91
2022/05/10 01:58:20;;;;;;;6.55;3.10;;;;;;;11.85;48.85;99930.25;5017077;28;20029;-91
2022/05/10 02:00:55;;;;;;;6.38;3.05;;;;;;;12.06;48.95;99958.72;5034858;28;20037;-91
2022/05/10 02:03:45;;;;;;;5.65;3.70;;;;;;;12.69;49.31;100069.63;5034472;28;20040;-90
2022/05/10 02:06:22;;;;;;;5.05;2.65;;;;;;;12.67;48.88;100063.66;5034627;28;20053;-90
2022/05/10 02:08:55;;;;;;;4.03;3.03;;;;;;;12.64;49.64;100060.56;5034192;28;20029;-91
2022/05/10 02:11:22;;;;;;;3.25;2.95;;;;;;;12.34;48.89;100012.75;5015801;28;20030;-91
2022/05/10 02:13:52;;;;;;;4.55;2.75;;;;;;;12.71;48.70;100070.25;5015964;28;20100;-91
2022/05/10 02:16:26;;;;;;;5.13;3.20;;;;;;;12.76;48.13;100082.16;5033707;28;20029;-91
2022/05/10 02:19:00;;;;;;;5.50;2.88;;;;;;;12.02;48.22;99952.13;5016054;28;20078;-90
2022/05/10 02:21:38;;;;;;;3.30;2.75;;;;;;;12.00;48.48;99972.66;5015925;28;20045;-90
2022/05/10 02:24:07;;;;;;;5.40;3.50;;;;;;;12.71;48.53;100066.78;5016121;28;20030;-91
2022/05/10 02:26:58;;;;;;;4.28;3.53;;;;;;;12.39;48.97;100034.25;5015879;28;20490;-91
2022/05/10 02:29:31;;;;;;;4.18;3.00;;;;;;;12.61;49.15;100069.66;5033641;28;20033;-91
2022/05/10 02:35:13;;;;;;;5.55;2.67;;;;;;;12.51;48.86;100068.25;5033761;28;20422;-90
2022/05/10 02:37:39;;;;;;;5.03;2.97;;;;;;;11.81;49.03;99965.16;5037057;28;20034;-90
2022/05/10 02:40:05;;;;;;;4.82;3.25;;;;;;;12.29;49.03;100052.19;5018993;28;20055;-91
2022/05/10 02:42:32;;;;;;;7.32;3.10;;;;;;;11.03;48.91;99884.91;5036390;28;20026;-90
2022/05/10 02:44:58;;;;;;;4.78;2.88;;;;;;;12.47;48.84;100102.22;5036866;28;20060;-90
2022/05/10 02:47:37;;;;;;;6.63;3.00;;;;;;;12.45;48.83;100079.56;5036056;28;20466;-90
2022/05/10 02:50:17;;;;;;;6.10;3.35;;;;;;;11.98;48.66;100020.47;5036139;28;20040;-91
2022/05/10 02:52:42;;;;;;;5.40;3.65;;;;;;;11.91;48.91;100005.47;5017025;28;20082;-90
2022/05/10 02:55:20;;;;;;;5.65;3.30;;;;;;;12.00;49.56;100042.28;5033421;28;20025;-91
2022/05/10 02:57:48;;;;;;;4.00;3.22;;;;;;;12.28;49.21;100084.97;5014829;28;20057;-91
2022/05/10 03:00:15;;;;;;;6.47;3.15;;;;;;;12.00;48.88;100058.19;5033056;28;20021;-91
2022/05/10 03:02:46;;;;;;;6.40;2.70;;;;;;;12.24;49.24;100088.97;5015747;28;20029;-91
2022/05/10 03:05:13;;;;;;;5.15;3.05;;;;;;;12.25;48.93;100103.84;5015614;28;20061;-91
2022/05/10 03:07:39;;;;;;;3.88;3.00;;;;;;;11.96;49.72;100043.66;5015800;28;20102;-91
2022/05/10 03:10:05;;;;;;;4.07;3.17;;;;;;;11.54;48.91;99969.09;5033366;28;20033;-90
2022/05/10 03:12:31;;;;;;;5.13;3.58;;;;;;;11.63;49.52;100007.72;5015303;28;20151;-91
2022/05/10 03:14:57;;;;;;;4.88;2.90;;;;;;;11.50;49.22;100016.22;5015440;28;20524;-90
2022/05/10 03:17:23;;;;;;;7.50;3.67;;;;;;;11.98;49.41;100054.88;5015239;28;20030;-91
2022/05/10 03:19:48;;;;;;;4.22;3.22;;;;;;;11.21;49.39;99939.38;5015552;28;20025;-91
2022/05/10 03:22:14;;;;;;;6.95;3.47;;;;;;;11.53;49.15;99991.25;5015159;28;20021;-91
2022/05/10 03:24:39;;;;;;;3.55;3.10;;;;;;;11.27;49.52;99951.88;5015378;28;20115;-91
2022/05/10 03:27:07;;;;;;;7.82;3.60;;;;;;;12.17;48.98;100087.19;5032634;28;20037;-91
2022/05/10 03:29:32;;;;;;;15.18;4.47;;;;;;;11.35;49.20;99973.00;5033133;28;20025;-91
2022/05/10 03:31:58;;;;;;;6.68;3.60;;;;;;;11.42;49.15;99985.34;5015332;28;20079;-91
2022/05/10 03:37:08;;;;;;;7.53;4.28;;;;;;;11.33;49.47;99977.63;5033156;28;20075;-91
2022/05/10 03:39:35;;;;;;;10.13;4.40;;;;;;;11.82;49.60;100032.94;5015039;28;20049;-91
2022/05/10 03:42:00;;;;;;;8.55;4.00;;;;;;;11.12;49.88;99910.31;5014985;28;20041;-91
2022/05/10 03:44:26;;;;;;;6.55;4.45;;;;;;;11.83;49.45;100038.06;5015167;28;20025;-91
2022/05/10 03:46:51;;;;;;;5.95;4.22;;;;;;;11.32;49.56;99954.84;5015090;28;20140;-90
2022/05/10 03:49:17;;;;;;;6.95;3.72;;;;;;;11.55;49.46;99987.44;5015213;28;20036;-91
2022/05/10 03:51:42;;;;;;;5.82;3.65;;;;;;;11.78;49.64;100025.38;5015044;28;20021;-91
2022/05/10 03:54:08;;;;;;;8.27;4.60;;;;;;;11.52;49.49;99974.56;5015155;28;20505;-90
2022/05/10 03:56:34;;;;;;;6.28;4.07;;;;;;;12.12;49.77;100068.38;5015201;28;20036;-91
2022/05/10 03:59:00;;;;;;;6.80;4.43;;;;;;;12.34;49.53;100084.25;5032250;28;20025;-91
2022/05/10 04:01:26;;;;;;;13.38;5.10;;;;;;;12.25;49.64;100061.50;5032310;28;20033;-91
2022/05/10 04:03:51;;;;;;;8.13;4.55;;;;;;;12.40;49.29;100090.69;5032391;28;20025;-91
2022/05/10 04:06:17;;;;;;;8.55;4.50;;;;;;;12.09;49.38;100057.13;5014632;28;20079;-92
2022/05/10 04:08:42;;;;;;;12.20;5.18;;;;;;;11.69;49.03;99970.00;5016633;28;20063;-91
2022/05/10 04:11:10;;;;;;;7.95;4.40;;;;;;;12.46;49.57;100087.31;5018938;28;20022;-91
2022/05/10 04:13:37;;;;;;;6.88;4.85;;;;;;;12.29;49.48;100061.97;5036491;28;20552;-91
2022/05/10 04:16:03;;;;;;;6.25;4.65;;;;;;;11.66;49.02;99957.13;5018753;28;20029;-90
2022/05/10 04:18:28;;;;;;;7.88;4.00;;;;;;;11.41;48.91;99925.53;5018584;28;20025;-90
2022/05/10 04:20:54;;;;;;;8.60;5.22;;;;;;;12.60;49.25;100094.50;5018636;28;20406;-91
2022/05/10 04:23:20;;;;;;;14.70;5.43;;;;;;;12.63;49.52;100096.81;5019058;28;20040;-90
2022/05/10 04:25:46;;;;;;;8.57;5.07;;;;;;;12.35;49.19;100054.13;5018141;28;20025;-91
2022/05/10 04:28:12;;;;;;;6.65;4.65;;;;;;;12.40;49.30;100049.13;5035791;28;20025;-91
2022/05/10 04:30:37;;;;;;;7.82;4.28;;;;;;;12.03;48.90;99986.38;5035775;28;20049;-91
2022/05/10 04:33:03;;;;;;;9.68;4.65;;;;;;;12.96;48.59;100104.50;5035674;28;20101;-91
2022/05/10 04:35:28;;;;;;;15.18;4.50;;;;;;;12.81;49.08;100064.72;5035514;28;20417;-91
2022/05/10 04:37:54;;;;;;;8.10;4.63;;;;;;;12.75;49.00;100052.19;5017865;28;20088;-90
2022/05/10 04:43:05;;;;;;;11.55;4.43;;;;;;;13.04;48.25;100049.56;5062083;28;20097;-90
2022/05/10 04:45:34;;;;;;;9.90;4.72;;;;;;;13.03;48.21;100039.97;5051008;28;20044;-90
2022/05/10 04:47:59;;;;;;;9.07;5.10;;;;;;;13.54;48.18;100102.97;5039768;28;20418;-90
2022/05/10 04:50:25;;;;;;;12.77;5.57;;;;;;;13.56;48.11;100100.94;5024387;28;20026;-91
2022/05/10 04:52:50;;;;;;;13.40;5.28;;;;;;;12.93;48.03;99967.84;5043520;28;20030;-90
2022/05/10 04:55:16;;;;;;;7.75;5.07;;;;;;;13.20;48.30;99998.22;5044128;28;20517;-90
2022/05/10 04:57:42;;;;;;;9.32;5.00;;;;;;;13.53;47.61;100041.13;5026529;28;20029;-90
2022/05/10 05:00:10;;;;;;;11.05;4.53;;;;;;;14.00;47.88;100101.72;5027314;28;20028;-90
2022/05/10 05:02:36;;;;;;;7.30;5.03;;;;;;;14.05;47.88;100092.34;5043625;28;20029;-90
2022/05/10 05:05:03;;;;;;;9.07;4.85;;;;;;;14.00;47.79;100077.81;5037007;28;20075;-90
2022/05/10 05:07:28;;;;;;;12.55;6.60;;;;;;;13.85;47.41;100047.81;5035341;28;20025;-90
2022/05/10 05:09:54;;;;;;;11.75;5.82;;;;;;;12.73;47.32;99848.34;5017869;28;20025;-89
2022/05/10 05:12:19;;;;;;;16.90;7.25;;;;;;;11.96;47.08;99734.03;5035504;28;20021;-90
2022/05/10 05:14:45;;;;;;;9.93;6.07;;;;;;;13.81;46.98;100000.63;5035193;28;20029;-90
2022/05/10 05:17:10;;;;;;;8.82;3.60;;;;;;;13.34;46.81;99903.75;5035148;28;20025;-90
2022/05/10 05:19:36;;;;;;;5.70;3.30;;;;;;;14.21;46.60;100047.00;5034402;28;20563;-90
2022/05/10 05:22:01;;;;;;;7.30;2.83;;;;;;;14.21;46.42;100020.47;5017211;28;20032;-90
2022/05/10 05:24:27;;;;;;;4.30;2.63;;;;;;;14.79;46.13;100087.63;5017259;28;20086;-90
2022/05/10 05:26:53;;;;;;;5.95;2.65;;;;;;;13.98;46.31;99959.53;5017265;28;20151;-90
2022/05/10 05:29:19;;;;;;;5.57;2.90;;;;;;;14.48;46.31;100032.16;5017503;28;20029;-90
2022/05/10 05:31:45;;;;;;;5.20;2.97;;;;;;;14.24;46.34;99973.09;5035048;28;20098;-90
2022/05/10 05:34:11;;;;;;;5.32;3.10;;;;;;;14.41;46.39;100020.63;5017482;28;20034;-90
2022/05/10 05:36:36;;;;;;;4.65;3.17;;;;;;;14.19;46.11;99975.50;5017568;28;20034;-90
2022/05/10 05:39:02;;;;;;;7.43;3.50;;;;;;;14.73;46.09;100059.97;5034868;28;20120;-90
2022/05/10 05:41:29;;;;;;;6.68;3.20;;;;;;;14.82;46.30;100052.69;5034997;28;20116;-89
2022/05/10 05:43:54;;;;;;;9.55;3.15;;;;;;;14.23;45.94;99967.97;5017478;28;20021;-89
2022/05/10 05:46:21;;;;;;;7.30;3.67;;;;;;;14.39;46.15;99983.63;5019150;28;20033;-90
2022/05/10 05:48:46;;;;;;;7.43;3.25;;;;;;;15.16;45.97;100094.47;5017902;28;20025;-90
2022/05/10 05:51:12;;;;;;;9.05;4.47;;;;;;;13.62;45.69;99843.66;5053329;28;20037;-88
2022/05/10 05:53:37;;;;;;;5.20;2.72;;;;;;;14.99;45.23;100070.03;5035345;28;20034;-89
2022/05/10 05:56:08;;;;;;;12.30;7.95;;;;;;;15.41;45.23;100111.63;5015805;28;20032;-90
2022/05/10 05:58:35;;;;;;;13.03;9.20;;;;;;;15.45;45.09;100101.41;5031730;28;20505;-90
2022/05/10 06:01:00;;;;;;;8.27;5.50;;;;;;;15.45;44.97;100138.69;5035868;28;20052;-90
2022/05/10 06:03:26;;;;;;;5.88;3.08;;;;;;;14.74;44.58;99975.75;5053136;28;20486;-90
2022/05/10 06:05:51;;;;;;;4.70;3.28;;;;;;;14.74;44.08;99992.50;5035717;28;20029;-89
2022/05/10 06:08:18;;;;;;;4.78;2.90;;;;;;;15.29;44.39;100085.75;5053545;28;20555;-89
2022/05/10 06:10:44;;;;;;;3.97;2.47;;;;;;;15.16;44.26;100049.25;5052696;28;20028;-90
2022/05/10 06:13:10;;;;;;;5.35;3.03;;;;;;;14.09;44.00;99844.84;5052667;28;20466;-90
2022/05/10 06:15:37;;;;;;;4.55;2.55;;;;;;;15.21;44.18;100015.75;5034359;28;20123;-90
2022/05/10 06:18:04;;;;;;;5.65;4.10;;;;;;;15.79;44.13;100124.59;5032156;28;20028;-90
2022/05/10 06:20:30;;;;;;;7.32;4.97;;;;;;;15.30;43.94;100048.31;5035078;28;20409;-89
2022/05/10 06:22:55;;;;;;;5.88;4.38;;;;;;;14.97;44.02;99984.31;5035526;28;20036;-89
2022/05/10 06:25:23;;;;;;;4.25;3.33;;;;;;;15.61;44.02;100069.22;5035324;28;20527;-90
2022/05/10 06:27:52;;;;;;;6.30;3.40;;;;;;;15.72;44.13;100083.81;5052470;28;20027;-89
2022/05/10 06:30:19;;;;;;;5.10;3.22;;;;;;;15.47;44.18;99995.59;5052933;28;20021;-90
2022/05/10 06:32:46;;;;;;;8.25;4.10;;;;;;;15.85;44.26;100036.75;5052526;28;20494;-90
2022/05/10 06:35:11;;;;;;;7.63;3.75;;;;;;;15.98;44.38;100067.09;5035202;28;20486;-90
2022/05/10 06:40:22;;;;;;;5.32;3.47;;;;;;;16.39;44.91;100099.81;5052815;28;20048;-91
2022/05/10 06:42:48;;;;;;;5.22;3.10;;;;;;;16.02;44.82;100033.72;5052050;28;20044;-90
2022/05/10 06:45:17;;;;;;;6.20;4.20;;;;;;;16.30;45.14;100074.34;5035544;28;20027;-90
2022/05/10 06:47:46;;;;;;;10.20;5.65;;;;;;;16.60;44.99;100104.16;5035155;28;20029;-90
2022/05/10 06:50:13;;;;;;;7.45;4.78;;;;;;;15.97;44.79;100055.63;5052492;28;20039;-90
2022/05/10 06:52:40;;;;;;;7.10;6.40;;;;;;;16.48;44.96;100079.94;5035258;28;20037;-90
2022/05/10 06:55:07;;;;;;;6.55;4.25;;;;;;;16.53;44.97;100074.81;5035329;28;20036;-90
2022/05/10 06:57:32;;;;;;;8.93;4.22;;;;;;;16.48;44.57;100060.47;5035635;28;20028;-90
2022/05/10 06:59:58;;;;;;;6.40;3.78;;;;;;;16.71;44.93;100084.09;5035596;28;20025;-90
2022/05/10 07:02:26;;;;;;;6.90;3.78;;;;;;;16.98;44.64;100099.06;5035182;28;20414;-90
2022/05/10 07:04:53;;;;;;;7.45;3.67;;;;;;;16.77;44.71;100054.78;5032981;28;20039;-90
2022/05/10 07:07:18;;;;;;;6.47;3.90;;;;;;;16.53;44.62;100005.53;5030391;28;20025;-90
2022/05/10 07:09:44;;;;;;;5.80;3.28;;;;;;;17.28;44.51;100101.31;5034876;28;20047;-90
2022/05/10 07:12:10;;;;;;;8.75;4.18;;;;;;;16.52;44.42;99977.22;5052391;28;20029;-90
2022/05/10 07:14:36;;;;;;;9.63;4.80;;;;;;;17.36;44.23;100106.44;5034410;28;20083;-89
2022/05/10 07:17:01;;;;;;;3.90;3.13;;;;;;;17.11;44.30;100031.56;5034303;28;20033;-90
2022/05/10 07:19:26;;;;;;;8.13;6.53;;;;;;;17.45;44.05;100065.16;5034393;28;20039;-88
2022/05/10 07:21:52;;;;;;;9.60;6.45;;;;;;;17.18;43.78;100024.38;5052237;28;20048;-91
2022/05/10 07:24:19;;;;;;;9.50;6.80;;;;;;;17.63;43.49;100073.31;5034774;28;20029;-90
2022/05/10 07:26:48;;;;;;;9.63;7.60;;;;;;;17.51;43.60;100044.81;5034500;28;20024;-91
2022/05/10 07:29:15;;;;;;;7.75;4.10;;;;;;;17.44;43.48;100021.63;5052352;28;20029;-90
2022/05/10 07:31:42;;;;;;;11.00;4.82;;;;;;;17.53;43.15;100024.06;5052803;28;20020;-90
2022/05/10 07:34:08;;;;;;;6.57;3.30;;;;;;;18.04;43.52;100107.72;5034580;28;20640;-90
2022/05/10 07:36:34;;;;;;;5.82;3.70;;;;;;;16.95;43.39;99910.09;5034655;28;20071;-92
2022/05/10 07:39:04;;;;;;;6.30;4.25;;;;;;;17.27;43.10;99931.56;5033854;28;20072;-91
2022/05/10 07:41:30;;;;;;;3.92;3.03;;;;;;;18.23;42.59;100089.13;5034049;28;20033;-90
2022/05/10 07:43:56;;;;;;;7.18;4.57;;;;;;;17.88;42.30;100009.34;5033925;28;20553;-90
2022/05/10 07:46:22;;;;;;;6.93;3.35;;;;;;;18.55;42.33;100092.63;5037929;28;20086;-91
2022/05/10 07:48:47;;;;;;;5.78;3.58;;;;;;;17.99;42.31;99989.16;5050593;28;20033;-91
2022/05/10 07:51:13;;;;;;;8.25;4.57;;;;;;;17.96;42.14;99981.56;5037127;28;20025;-90
2022/05/10 07:53:41;;;;;;;7.60;4.22;;;;;;;18.38;42.15;100028.16;5034753;28;20021;-88
2022/05/10 07:56:07;;;;;;;4.30;3.20;;;;;;;18.39;42.05;100009.22;5034559;28;20037;-89
2022/05/10 07:58:33;;;;;;;5.45;3.28;;;;;;;18.74;41.78;100040.88;5034602;28;20048;-89
2022/05/10 08:00:59;;;;;;;5.97;4.13;;;;;;;18.59;41.69;100002.91;5033934;28;20108;-88
2022/05/10 08:03:26;;;;;;;8.20;4.85;;;;;;;18.40;41.13;99956.56;5051630;28;20060;-86
2022/05/10 08:05:55;;;;;;;4.57;3.28;;;;;;;19.16;40.75;100087.44;5051243;28;20033;-87
2022/05/10 08:08:21;;;;;;;8.13;3.75;;;;;;;19.42;40.58;100102.44;5026628;28;20128;-87
2022/05/10 08:10:48;;;;;;;4.15;3.25;;;;;;;19.51;39.76;100093.06;5049913;28;20032;-87
2022/05/10 08:13:21;;;;;;;6.00;3.08;;;;;;;19.10;38.58;100017.91;5018723;28;20033;-88
2022/05/10 08:15:47;;;;;;;7.25;2.90;;;;;;;19.42;39.11;100069.47;5033703;28;20037;-87
2022/05/10 08:18:13;;;;;;;7.28;3.08;;;;;;;19.73;38.92;100101.50;5041145;28;20079;-87
2022/05/10 08:20:40;;;;;;;6.80;3.25;;;;;;;19.23;38.33;99988.31;5040245;28;20033;-87
2022/05/10 08:23:06;;;;;;;3.70;2.53;;;;;;;19.81;38.12;100087.81;5018677;28;20052;-87
2022/05/10 08:25:33;;;;;;;6.32;2.50;;;;;;;20.08;37.61;100090.19;5047446;28;20037;-87
2022/05/10 08:28:00;;;;;;;5.75;3.63;;;;;;;20.03;37.28;100079.28;5037777;28;20378;-88
2022/05/10 08:30:25;;;;;;;6.20;2.90;;;;;;;19.71;37.37;99996.41;5041080;28;20067;-87
2022/05/10 08:32:51;;;;;;;5.80;2.80;;;;;;;19.69;37.78;99969.03;5041533;28;20045;-86
2022/05/10 08:35:17;;;;;;;4.70;2.63;;;;;;;20.23;36.69;100037.78;5013358;28;20471;-88
2022/05/10 08:37:43;;;;;;;5.82;2.47;;;;;;;20.11;36.27;100007.44;5045923;28;20120;-88
2022/05/10 08:40:26;;;;;;;7.15;3.65;;;;;;;20.51;35.35;100061.31;5047513;28;20041;-87
2022/05/10 08:42:58;;;;;;;3.83;2.80;;;;;;;20.57;35.16;100051.53;5049653;28;20029;-87
2022/05/10 08:45:25;;;;;;;5.05;2.63;;;;;;;20.56;35.52;100026.56;5038881;28;20029;-87
2022/05/10 08:47:52;;;;;;;3.85;2.72;;;;;;;20.97;35.22;100075.03;5036935;28;20148;-87
2022/05/10 08:50:17;;;;;;;6.57;3.42;;;;;;;21.22;35.09;100084.53;5037279;28;20498;-88
2022/05/10 08:52:51;;;;;;;6.70;2.65;;;;;;;21.39;34.45;100087.31;5051184;28;20089;-87
2022/05/10 08:55:21;;;;;;;5.65;3.15;;;;;;;21.51;34.01;100080.06;5053512;28;20029;-87
2022/05/10 08:57:52;;;;;;;5.07;3.92;;;;;;;21.72;33.58;100075.94;5036253;28;20162;-87
2022/05/10 09:00:46;;;;;;;8.10;4.82;;;;;;;21.81;32.73;100076.41;5034682;28;20037;-87
2022/05/10 09:03:14;;;;;;;5.80;3.50;;;;;;;21.91;33.36;100078.47;5045167;28;20033;-87
2022/05/10 09:05:44;;;;;;;6.97;3.50;;;;;;;21.36;32.82;99952.66;5040187;28;20026;-87
2022/05/10 09:08:34;;;;;;;7.45;3.15;;;;;;;22.34;30.35;100081.50;5029650;28;20029;-85
2022/05/10 09:11:03;;;;;;;6.28;3.08;;;;;;;21.96;31.26;100011.34;5034577;28;20102;-86
2022/05/10 09:13:32;;;;;;;7.65;3.65;;;;;;;22.20;30.68;100002.13;5052332;28;20036;-86
2022/05/10 09:16:05;;;;;;;7.20;3.45;;;;;;;22.29;30.44;99992.59;5035330;28;20488;-86
2022/05/10 09:18:39;;;;;;;4.20;2.80;;;;;;;23.02;29.33;100082.38;5039364;28;20488;-86
2022/05/10 09:21:16;;;;;;;4.40;2.70;;;;;;;23.26;29.40;100081.13;5036105;28;20109;-86
2022/05/10 09:24:19;;;;;;;3.80;3.00;;;;;;;23.55;28.40;100081.00;5045611;28;20520;-86
2022/05/10 09:26:47;;;;;;;5.32;2.80;;;;;;;23.74;27.21;100071.53;5042478;28;20025;-85
2022/05/10 09:29:31;;;;;;;5.90;4.45;;;;;;;23.63;27.22;100023.97;5054031;28;20040;-86
2022/05/10 09:35:09;;;;;;;9.30;7.50;;;;;;;23.96;27.31;100004.13;5028167;28;20032;-87
2022/05/10 09:37:50;;;;;;;5.30;3.22;;;;;;;24.35;26.89;100024.50;5025679;28;20028;-87
2022/05/10 09:40:18;;;;;;;10.35;7.80;;;;;;;24.50;26.94;100061.59;5036080;28;20041;-86
2022/05/10 09:42:46;;;;;;;7.05;5.15;;;;;;;24.32;26.67;99992.63;5038458;28;20030;-85
2022/05/10 09:45:14;;;;;;;5.53;4.00;;;;;;;24.83;26.77;100047.03;5042543;28;20117;-87
2022/05/10 09:47:52;;;;;;;4.60;2.55;;;;;;;24.93;25.97;100049.81;5033992;28;20498;-85
2022/05/10 09:50:19;;;;;;;6.57;2.67;;;;;;;24.43;25.80;99944.09;5035038;28;20461;-85
2022/05/10 09:52:46;;;;;;;6.75;3.70;;;;;;;25.20;25.72;100043.50;5035094;28;20032;-85
2022/05/10 09:55:28;;;;;;;4.13;2.80;;;;;;;25.00;25.35;99976.66;5032247;28;20045;-86
2022/05/10 09:57:54;;;;;;;;;;;;;;;25.28;26.50;100043.84;5041856;28;20020;-85
2022/05/10 10:00:41;;;;;;;5.68;2.88;;;;;;;25.47;26.54;100035.28;5047303;28;20029;-86
2022/05/10 10:03:06;;;;;;;4.78;2.33;;;;;;;25.22;26.69;99962.97;5029554;28;20025;-85
2022/05/10 10:05:34;;;;;;;8.55;7.03;;;;;;;25.79;26.52;100029.75;5052534;28;20029;-85
2022/05/10 10:07:59;;;;;;;5.88;4.45;;;;;;;26.00;26.21;100020.59;5046162;28;20127;-85
2022/05/10 10:10:28;;;;;;;4.72;2.92;;;;;;;26.25;25.80;100042.31;5037132;28;20025;-85
2022/05/10 10:12:54;;;;;;;5.60;2.70;;;;;;;25.88;25.48;99958.63;5035782;28;20067;-87
2022/05/10 10:15:36;;;;;;;4.60;2.13;;;;;;;26.49;24.93;100020.16;5032384;28;20112;-85
2022/05/10 10:18:08;;;;;;;4.07;2.50;;;;;;;26.55;24.86;100024.50;5043337;28;20028;-87
2022/05/10 10:20:36;;;;;;;6.93;4.18;;;;;;;26.26;24.52;99941.06;5052616;28;20049;-87
2022/05/10 10:23:10;;;;;;;7.18;3.10;;;;;;;26.92;23.11;100016.88;5033828;28;20059;-87
2022/05/10 10:25:42;;;;;;;6.45;2.63;;;;;;;26.52;23.60;99922.94;5038779;28;20025;-85
2022/05/10 10:28:21;;;;;;;3.58;2.28;;;;;;;27.02;22.16;99972.72;5034676;28;20040;-86
2022/05/10 10:31:01;;;;;;;4.55;1.80;;;;;;;27.44;22.63;100004.00;5046404;28;20111;-86
2022/05/10 10:33:53;;;;;;;4.57;1.90;;;;;;;27.58;22.39;100005.06;5018213;28;20033;-85
2022/05/10 10:36:25;;;;;;;3.25;2.20;;;;;;;27.65;21.88;99991.22;4999689;28;20282;-85
2022/05/10 10:39:19;;;;;;;5.82;2.28;;;;;;;27.63;22.55;99983.34;5034166;28;20056;-85
2022/05/10 10:41:53;;;;;;;11.63;8.15;;;;;;;27.73;22.17;99993.34;5032463;28;20022;-85
2022/05/10 10:44:23;;;;;;;4.65;2.38;;;;;;;27.75;22.12;99997.41;5032517;28;20139;-85
2022/05/10 10:47:18;;;;;;;6.15;3.30;;;;;;;27.77;20.42;99980.84;5023771;28;20025;-86
2022/05/10 10:49:59;;;;;;;6.00;3.75;;;;;;;27.55;19.65;99916.09;5029232;28;20029;-86
2022/05/10 10:52:28;;;;;;;6.25;3.55;;;;;;;27.86;20.50;99946.59;5035710;28;20096;-86
2022/05/10 10:54:54;;;;;;;4.80;2.47;;;;;;;28.02;20.25;99950.81;5032861;28;20029;-86
2022/05/10 10:57:41;;;;;;;6.28;4.13;;;;;;;28.35;20.15;99983.72;5019067;28;20405;-86
2022/05/10 11:00:22;;;;;;;6.50;4.68;;;;;;;28.28;19.40;99981.34;5048828;28;20029;-86
2022/05/10 11:02:59;;;;;;;2.97;1.80;;;;;;;28.31;17.59;99955.50;5038448;28;20033;-86
2022/05/10 11:05:57;;;;;;;3.00;1.48;;;;;;;28.58;17.60;99968.56;5015235;28;20491;-86
2022/05/10 11:08:50;;;;;;;5.25;2.30;;;;;;;28.62;17.44;99972.34;5028502;28;20045;-86
2022/05/10 11:11:57;;;;;;;4.60;1.75;;;;;;;28.73;17.19;99976.56;5024205;28;20171;-86
2022/05/10 11:14:34;;;;;;;5.43;1.90;;;;;;;28.72;17.43;99955.94;5050836;28;20032;-86
2022/05/10 11:17:05;;;;;;;2.95;1.60;;;;;;;28.79;16.96;99953.69;5030449;28;20029;-86
2022/05/10 11:19:42;;;;;;;5.03;2.10;;;;;;;28.90;17.26;99965.28;5044296;28;20120;-86
2022/05/10 11:22:39;;;;;;;4.72;2.03;;;;;;;28.43;17.09;99869.84;5046038;28;20082;-86
2022/05/10 11:25:19;;;;;;;2.90;1.90;;;;;;;28.68;16.00;99881.53;5040575;28;20033;-86
2022/05/10 11:28:06;;;;;;;4.50;2.80;;;;;;;29.21;15.18;99958.41;5048878;28;20139;-86
2022/05/10 11:30:56;;;;;;;4.25;2.08;;;;;;;29.42;15.80;99957.03;5018345;28;20090;-86
2022/05/10 11:33:47;;;;;;;3.22;2.03;;;;;;;29.33;16.05;99958.81;5038415;28;20087;-86
2022/05/10 11:36:15;;;;;;;8.95;1.50;;;;;;;29.32;15.00;99953.66;5022669;28;20436;-86
2022/05/10 11:39:01;;;;;;;5.65;2.05;;;;;;;29.34;14.84;99938.66;5051345;28;20056;-85
2022/05/10 11:42:00;;;;;;;4.85;2.55;;;;;;;29.40;15.31;99947.56;5041509;28;20064;-85
2022/05/10 11:44:50;;;;;;;4.47;2.20;;;;;;;29.02;14.99;99901.28;5045543;28;20111;-86
2022/05/10 11:47:53;;;;;;;3.78;2.83;;;;;;;29.49;15.49;99937.66;5048944;28;20116;-85
2022/05/10 11:50:37;;;;;;;2.50;1.80;;;;;;;29.62;15.52;99928.78;5015038;28;20033;-86
2022/05/10 11:53:06;;;;;;;1.98;1.77;;;;;;;29.91;15.46;99927.81;5040067;28;20104;-85
2022/05/10 11:55:47;;;;;;;4.70;1.60;;;;;;;29.58;14.96;99889.66;5036459;28;20618;-85
2022/05/10 11:58:13;;;;;;;5.32;2.03;;;;;;;29.47;15.17;99882.75;5043449;28;20107;-85
2022/05/10 12:00:51;;;;;;;5.93;2.50;;;;;;;29.45;15.35;99865.91;5043710;28;20564;-85
2022/05/10 12:03:39;;;;;;;2.88;1.60;;;;;;;30.07;12.71;99923.78;5031243;28;20482;-85